This is the latest recevied weather packets stored in our database for station/object EA1FWM-12. If no packets are shown the sender has not sent any weather packets the latest 10 day(s).
| Time | Temp. | Humidity | Pressure | Rain* | Wind** | Luminosity | Snow |
|---|---|---|---|---|---|---|---|
| 1787679989 | 16.67° C | 83% | 1018.4 hPa | - | - | - | - |
| 1787679089 | 16.67° C | 83% | 1018.3 hPa | - | - | - | - |
| 1787678190 | 16.67° C | 83% | 1018.4 hPa | - | - | - | - |
| 1787677290 | 16.67° C | 82% | 1018.2 hPa | - | - | - | - |
| 1787676390 | 16.67° C | 81% | 1018.2 hPa | - | - | - | - |
| 1787675491 | 17.78° C | 78% | 1018.4 hPa | - | - | - | - |
| 1787674591 | 20° C | 75% | 1018.5 hPa | - | - | - | - |
| 1787673692 | 20.56° C | 76% | 1018.3 hPa | - | - | - | - |
| 1787672792 | 21.11° C | 75% | 1018.5 hPa | - | - | - | - |
| 1787671892 | 21.11° C | 77% | 1018.3 hPa | - | - | - | - |
| 1787670993 | 21.11° C | 77% | 1018.6 hPa | - | - | - | - |
| 1787669193 | 20° C | 77% | 1018.6 hPa | - | - | - | - |
| 1787668293 | 20° C | 77% | 1018.7 hPa | - | - | - | - |
| 1787667394 | 20.56° C | 76% | 1018.8 hPa | - | - | - | - |
| 1787666495 | 20.56° C | 80% | 1018.8 hPa | - | - | - | - |
| 1787665596 | 19.44° C | 81% | 1019.1 hPa | - | - | - | - |
| 1787664696 | 18.89° C | 81% | 1019 hPa | - | - | - | - |
| 1787662897 | 19.44° C | 77% | 1018.9 hPa | - | - | - | - |
| 1787661998 | 21.11° C | 78% | 1019 hPa | - | - | - | - |
| 1787661098 | 20.56° C | 79% | 1019 hPa | - | - | - | - |
| 1787660198 | 20° C | 81% | 1019 hPa | - | - | - | - |
| 1787659298 | 18.89° C | 84% | 1019.2 hPa | - | - | - | - |
| 1787658399 | 19.44° C | 80% | 1019.1 hPa | - | - | - | - |
| 1787657499 | 20.56° C | 79% | 1019.1 hPa | - | - | - | - |
| 1787656599 | 20° C | 84% | 1019.3 hPa | - | - | - | - |
* Rain since midnight (hover to see other rain measurements)
** Current wind speed in m/s (hover to see current wind gust speed)